Time;durP1;ratioP1;P1;durP2;ratioP2;P2;SDS_P1;SDS_P2;PMS_P1;PMS_P2;Temp;Humidity;BMP_temperature;BMP_pressure;BME280_temperature;BME280_humidity;BME280_pressure;Samples;Min_cycle;Max_cycle;Signal;HPM_P1;HPM_P2
2021/06/19 00:01:00;;;;;;;6.93;6.32;;;24.40;99.90;;;;;;5075834;28;20253;-58
2021/06/19 00:03:26;;;;;;;6.15;5.65;;;24.40;99.90;;;;;;5075482;28;20523;-58
2021/06/19 00:05:51;;;;;;;6.68;5.97;;;24.40;99.90;;;;;;5074627;28;20626;-61
2021/06/19 00:08:17;;;;;;;7.47;6.00;;;24.40;99.90;;;;;;5075254;28;20201;-52
2021/06/19 00:10:43;;;;;;;8.70;6.15;;;24.40;99.90;;;;;;5074718;28;20171;-55
2021/06/19 00:13:09;;;;;;;6.15;5.65;;;24.40;99.90;;;;;;5075196;28;20646;-61
2021/06/19 00:15:35;;;;;;;6.50;5.90;;;24.40;99.90;;;;;;5075650;28;20179;-59
2021/06/19 00:18:01;;;;;;;6.95;6.28;;;24.40;99.90;;;;;;5075967;28;20198;-54
2021/06/19 00:20:27;;;;;;;6.47;5.65;;;24.40;99.90;;;;;;5075266;28;20573;-59
2021/06/19 00:22:54;;;;;;;6.15;5.55;;;24.40;99.90;;;;;;5073789;28;20191;-59
2021/06/19 00:25:22;;;;;;;6.85;6.13;;;24.30;99.90;;;;;;5074945;28;20226;-54
2021/06/19 00:27:49;;;;;;;7.13;6.15;;;24.20;99.90;;;;;;5074615;28;20205;-59
2021/06/19 00:30:15;;;;;;;7.68;5.88;;;24.20;99.90;;;;;;5074918;28;20220;-58
2021/06/19 00:32:41;;;;;;;6.20;5.60;;;24.20;99.90;;;;;;5075787;28;20159;-59
2021/06/19 00:35:08;;;;;;;6.47;5.78;;;24.20;99.90;;;;;;5073878;28;20221;-59
2021/06/19 00:37:35;;;;;;;6.35;5.75;;;24.20;99.90;;;;;;5074490;28;20214;-61
2021/06/19 00:40:06;;;;;;;6.57;5.88;;;24.20;99.90;;;;;;5074866;28;20200;-55
2021/06/19 00:42:32;;;;;;;6.78;5.95;;;24.20;99.90;;;;;;5074181;28;20189;-53
2021/06/19 00:44:58;;;;;;;6.55;5.95;;;24.20;99.90;;;;;;5074763;28;20198;-61
2021/06/19 00:47:25;;;;;;;7.68;5.90;;;24.10;99.90;;;;;;5073561;28;20225;-56
2021/06/19 00:49:51;;;;;;;7.32;6.45;;;24.00;99.90;;;;;;5074796;28;20179;-57
2021/06/19 00:52:16;;;;;;;6.65;6.05;;;23.90;99.90;;;;;;5073691;28;20325;-58
2021/06/19 00:54:42;;;;;;;6.70;6.00;;;23.80;99.90;;;;;;5074479;28;20181;-61
2021/06/19 00:57:09;;;;;;;6.55;6.05;;;23.80;99.90;;;;;;5073430;28;20217;-56
2021/06/19 00:59:36;;;;;;;6.30;5.70;;;23.80;99.90;;;;;;5073752;28;20179;-61
2021/06/19 01:02:03;;;;;;;6.97;6.28;;;23.80;99.90;;;;;;5074323;28;20228;-61
2021/06/19 01:04:29;;;;;;;10.20;6.30;;;23.70;99.90;;;;;;5074115;28;20202;-61
2021/06/19 01:06:54;;;;;;;6.30;5.80;;;23.70;99.90;;;;;;5074121;28;20524;-60
2021/06/19 01:09:20;;;;;;;6.63;5.97;;;23.70;99.90;;;;;;5074132;28;20224;-56
2021/06/19 01:11:45;;;;;;;6.85;6.22;;;23.70;99.90;;;;;;5073702;28;20224;-60
2021/06/19 01:14:11;;;;;;;7.57;6.63;;;23.70;99.90;;;;;;5074001;28;20177;-59
2021/06/19 01:16:37;;;;;;;6.80;5.70;;;23.70;99.90;;;;;;5074656;28;20623;-55
2021/06/19 01:19:03;;;;;;;6.75;6.15;;;23.70;99.90;;;;;;5073262;28;20178;-54
2021/06/19 01:21:30;;;;;;;5.93;5.53;;;23.70;99.90;;;;;;5074300;28;20177;-59
2021/06/19 01:23:56;;;;;;;6.88;6.18;;;23.70;99.90;;;;;;5073293;28;20311;-60
2021/06/19 01:26:25;;;;;;;7.93;6.28;;;23.70;99.90;;;;;;5073556;28;20162;-58
2021/06/19 01:28:51;;;;;;;7.07;6.18;;;23.70;99.90;;;;;;5074295;28;20206;-61
2021/06/19 01:31:18;;;;;;;7.50;6.80;;;23.60;99.90;;;;;;5073105;28;20240;-52
2021/06/19 01:33:46;;;;;;;7.03;6.43;;;23.50;99.90;;;;;;5074193;28;20185;-55
2021/06/19 01:36:12;;;;;;;6.57;5.97;;;23.50;99.90;;;;;;5072931;28;20187;-55
2021/06/19 01:38:40;;;;;;;6.75;6.15;;;23.40;99.90;;;;;;5073599;28;20231;-59
2021/06/19 01:41:19;;;;;;;6.05;5.45;;;23.40;99.90;;;;;;5073977;28;20204;-55
2021/06/19 01:43:46;;;;;;;8.10;5.80;;;23.40;99.90;;;;;;5073001;28;20178;-57
2021/06/19 01:46:13;;;;;;;7.45;6.75;;;23.40;99.90;;;;;;5074057;28;20170;-61
2021/06/19 01:48:39;;;;;;;6.72;6.18;;;23.40;99.90;;;;;;5073783;28;20530;-56
2021/06/19 01:51:10;;;;;;;6.82;6.10;;;23.30;99.90;;;;;;5073511;28;20178;-55
2021/06/19 01:53:43;;;;;;;6.90;6.30;;;23.20;99.90;;;;;;5073433;28;20192;-59
2021/06/19 01:56:10;;;;;;;7.10;6.13;;;23.00;99.90;;;;;;5073358;28;20157;-61
2021/06/19 01:58:35;;;;;;;7.78;7.07;;;23.00;99.90;;;;;;5073270;28;20275;-61
2021/06/19 02:01:06;;;;;;;7.50;6.80;;;22.90;99.90;;;;;;5072573;28;20250;-57
2021/06/19 02:03:32;;;;;;;7.05;6.45;;;22.90;99.90;;;;;;5073990;28;20192;-61
2021/06/19 02:05:57;;;;;;;7.10;6.40;;;22.80;99.90;;;;;;5073868;28;20227;-56
2021/06/19 02:08:23;;;;;;;7.20;6.50;;;22.80;99.90;;;;;;5072035;28;20196;-57
2021/06/19 02:10:49;;;;;;;7.82;7.07;;;22.90;99.90;;;;;;5073536;28;20165;-51
2021/06/19 02:13:14;;;;;;;7.90;7.05;;;22.90;99.90;;;;;;5073667;28;20519;-56
2021/06/19 02:15:44;;;;;;;7.57;6.88;;;22.70;99.90;;;;;;5072635;28;20190;-56
2021/06/19 02:18:09;;;;;;;6.93;6.32;;;22.70;99.90;;;;;;5073403;28;20240;-57
2021/06/19 02:20:35;;;;;;;7.00;6.40;;;22.60;99.90;;;;;;5073830;28;20186;-53
2021/06/19 02:23:01;;;;;;;8.90;6.20;;;22.60;99.90;;;;;;5073680;28;20173;-56
2021/06/19 02:25:30;;;;;;;8.93;6.93;;;22.60;99.90;;;;;;5072454;28;20683;-61
2021/06/19 02:28:00;;;;;;;7.00;6.40;;;22.60;99.90;;;;;;5073421;28;20230;-61
2021/06/19 02:30:54;;;;;;;6.93;6.22;;;22.50;99.90;;;;;;5072818;28;20186;-59
2021/06/19 02:33:19;;;;;;;7.95;6.40;;;22.60;99.90;;;;;;5073633;28;20174;-60
2021/06/19 02:35:47;;;;;;;7.30;6.60;;;22.60;99.90;;;;;;5073341;28;20178;-58
2021/06/19 02:38:14;;;;;;;7.47;6.35;;;22.60;99.90;;;;;;5072055;28;20691;-55
2021/06/19 02:40:40;;;;;;;7.20;6.55;;;22.60;99.90;;;;;;5072954;28;20167;-52
2021/06/19 02:43:06;;;;;;;6.70;6.10;;;22.50;99.90;;;;;;5072140;28;20180;-56
2021/06/19 02:45:32;;;;;;;7.15;6.45;;;22.60;99.90;;;;;;5073498;28;20290;-53
2021/06/19 02:47:58;;;;;;;7.47;6.78;;;22.60;99.90;;;;;;5073928;28;20225;-60
2021/06/19 02:50:26;;;;;;;8.07;7.38;;;22.50;99.90;;;;;;5073405;28;20519;-56
2021/06/19 02:52:52;;;;;;;8.05;7.35;;;22.40;99.90;;;;;;5071708;28;20262;-58
2021/06/19 02:55:21;;;;;;;8.00;7.30;;;22.30;99.90;;;;;;5073092;28;20244;-50
2021/06/19 02:57:47;;;;;;;8.15;7.45;;;22.20;99.90;;;;;;5072667;28;20229;-59
2021/06/19 03:00:15;;;;;;;7.55;6.80;;;22.20;99.90;;;;;;5072758;28;20625;-51
2021/06/19 03:02:40;;;;;;;7.43;6.72;;;22.10;99.90;;;;;;5072926;28;20217;-60
2021/06/19 03:05:08;;;;;;;7.97;7.13;;;22.10;99.90;;;;;;5071778;28;20246;-57
2021/06/19 03:07:34;;;;;;;7.07;6.30;;;22.10;99.90;;;;;;5072793;28;20248;-60
2021/06/19 03:10:00;;;;;;;7.27;6.57;;;22.10;99.90;;;;;;5073145;28;20171;-59
2021/06/19 03:12:28;;;;;;;7.20;6.50;;;22.10;99.90;;;;;;5076342;28;20652;-56
2021/06/19 03:14:54;;;;;;;7.50;6.77;;;22.20;99.90;;;;;;5076541;28;20195;-61
2021/06/19 03:17:21;;;;;;;6.88;6.18;;;22.10;99.90;;;;;;5076291;28;20269;-54
2021/06/19 03:19:47;;;;;;;7.07;6.38;;;22.20;99.90;;;;;;5077072;28;20202;-60
2021/06/19 03:22:12;;;;;;;7.43;6.72;;;22.10;99.90;;;;;;5076372;28;20210;-60
2021/06/19 03:24:42;;;;;;;6.88;6.28;;;22.10;99.90;;;;;;5076236;28;20201;-57
2021/06/19 03:27:13;;;;;;;7.50;6.80;;;22.20;99.90;;;;;;5076559;28;20222;-57
2021/06/19 03:29:39;;;;;;;9.75;8.93;;;22.10;99.90;;;;;;5074317;28;20221;-53
2021/06/19 03:32:06;;;;;;;10.30;9.30;;;22.20;99.90;;;;;;5076044;28;20174;-58
2021/06/19 03:34:32;;;;;;;9.50;8.60;;;22.30;99.90;;;;;;5075626;28;20189;-49
2021/06/19 03:37:01;;;;;;;10.50;9.60;;;22.30;99.90;;;;;;5076132;28;20222;-57
2021/06/19 03:39:35;;;;;;;10.27;9.38;;;22.30;99.90;;;;;;5076009;28;20642;-58
2021/06/19 03:42:01;;;;;;;8.63;7.82;;;22.30;99.90;;;;;;5075990;28;20178;-57
2021/06/19 03:44:27;;;;;;;8.23;7.50;;;22.20;99.90;;;;;;5075145;28;20221;-53
2021/06/19 03:46:53;;;;;;;8.10;7.28;;;22.30;99.90;;;;;;5075591;28;20194;-58
2021/06/19 03:49:19;;;;;;;9.52;8.63;;;22.30;99.90;;;;;;5076546;28;20174;-56
2021/06/19 03:51:47;;;;;;;11.52;10.40;;;22.20;99.90;;;;;;5074605;28;20186;-56
2021/06/19 03:54:12;;;;;;;10.48;9.40;;;22.20;99.90;;;;;;5075936;28;20171;-52
2021/06/19 03:56:38;;;;;;;9.90;9.00;;;22.20;99.90;;;;;;5074545;28;20738;-61
2021/06/19 03:59:03;;;;;;;9.68;8.77;;;22.20;99.90;;;;;;5075704;28;20642;-55
2021/06/19 04:01:29;;;;;;;9.80;8.80;;;22.10;99.90;;;;;;5075488;28;20171;-53
2021/06/19 04:03:55;;;;;;;12.15;8.90;;;22.20;99.90;;;;;;5074527;28;20202;-55
2021/06/19 04:06:21;;;;;;;11.05;9.95;;;22.30;99.90;;;;;;5075661;28;20622;-58
2021/06/19 04:08:47;;;;;;;11.03;10.03;;;22.30;99.90;;;;;;5075507;28;20257;-55
2021/06/19 04:11:14;;;;;;;12.35;11.25;;;22.40;99.90;;;;;;5075298;28;20619;-55
2021/06/19 04:13:40;;;;;;;10.95;9.95;;;22.50;99.90;;;;;;5074382;28;20191;-61
2021/06/19 04:16:06;;;;;;;10.90;9.93;;;22.60;99.90;;;;;;5075461;28;20167;-58
2021/06/19 04:18:32;;;;;;;10.73;9.60;;;22.60;99.90;;;;;;5072961;28;20659;-52
2021/06/19 04:20:57;;;;;;;13.55;12.35;;;22.60;99.90;;;;;;5074900;28;20170;-52
2021/06/19 04:23:23;;;;;;;14.27;13.00;;;22.60;99.90;;;;;;5075110;28;20192;-60
2021/06/19 04:25:48;;;;;;;14.95;13.55;;;22.70;99.90;;;;;;5075119;28;20217;-56
2021/06/19 04:28:14;;;;;;;14.57;13.38;;;22.70;99.90;;;;;;5074045;28;20562;-56
2021/06/19 04:30:39;;;;;;;14.98;13.57;;;22.80;99.90;;;;;;5075430;28;20172;-61
2021/06/19 04:33:05;;;;;;;14.30;12.93;;;22.90;99.90;;;;;;5073330;28;20172;-54
2021/06/19 04:35:31;;;;;;;14.45;13.15;;;23.00;99.90;;;;;;5075307;28;20179;-57
2021/06/19 04:37:57;;;;;;;13.70;12.38;;;23.00;99.90;;;;;;5074571;28;20303;-58
2021/06/19 04:43:04;;;;;;;10.13;9.07;;;23.20;99.90;;;;;;5073823;28;20188;-58
2021/06/19 04:45:30;;;;;;;9.25;8.35;;;23.20;99.90;;;;;;5074703;28;20197;-51
2021/06/19 04:47:57;;;;;;;9.55;8.57;;;22.90;99.90;;;;;;5073855;28;20184;-51
2021/06/19 04:50:23;;;;;;;9.65;8.85;;;22.80;99.90;;;;;;5074687;28;20161;-57
2021/06/19 04:52:48;;;;;;;9.55;8.73;;;22.70;99.90;;;;;;5072040;28;20176;-61
2021/06/19 04:55:17;;;;;;;9.52;8.63;;;22.80;99.90;;;;;;5072983;28;20268;-59
2021/06/19 04:57:47;;;;;;;9.10;8.30;;;22.90;99.90;;;;;;5054526;28;20285;-57
2021/06/19 05:00:13;;;;;;;9.15;8.35;;;23.00;99.90;;;;;;5053367;28;20208;-60
2021/06/19 05:02:39;;;;;;;8.98;8.07;;;23.10;99.90;;;;;;5061058;28;20218;-60
2021/06/19 05:05:05;;;;;;;8.93;7.97;;;23.20;99.90;;;;;;5074407;28;20745;-54
2021/06/19 05:07:34;;;;;;;10.05;9.05;;;23.20;99.90;;;;;;5074217;28;20228;-59
2021/06/19 05:10:02;;;;;;;10.45;9.48;;;23.30;99.90;;;;;;5075047;28;20174;-60
2021/06/19 05:12:28;;;;;;;12.35;10.80;;;23.40;99.90;;;;;;5073036;28;20186;-58
2021/06/19 05:14:54;;;;;;;12.10;10.90;;;23.50;99.90;;;;;;5074133;28;20247;-60
2021/06/19 05:17:20;;;;;;;11.18;10.27;;;23.60;99.90;;;;;;5072288;28;20726;-60
2021/06/19 05:19:45;;;;;;;11.82;10.68;;;23.70;99.90;;;;;;5066660;28;20190;-54
2021/06/19 05:22:11;;;;;;;14.65;13.25;;;23.70;99.90;;;;;;5060633;28;20168;-55
2021/06/19 05:24:36;;;;;;;15.15;13.80;;;23.80;99.90;;;;;;5052533;28;20215;-58
2021/06/19 05:27:02;;;;;;;12.45;11.35;;;23.80;99.90;;;;;;5053943;28;20226;-59
2021/06/19 05:29:27;;;;;;;9.82;8.93;;;23.90;99.90;;;;;;5065340;28;20642;-62
2021/06/19 05:31:53;;;;;;;9.20;8.30;;;24.00;99.90;;;;;;5072613;28;20646;-55
2021/06/19 05:34:19;;;;;;;9.10;8.30;;;24.00;99.90;;;;;;5071800;28;20622;-56
2021/06/19 05:36:44;;;;;;;8.65;7.88;;;23.80;99.90;;;;;;5055034;28;20215;-57
2021/06/19 05:39:11;;;;;;;8.88;8.18;;;23.70;99.90;;;;;;5062634;28;20171;-60
2021/06/19 05:41:38;;;;;;;9.00;8.13;;;23.70;99.90;;;;;;5073698;28;20178;-59
2021/06/19 05:44:08;;;;;;;8.65;7.75;;;23.70;99.90;;;;;;5061252;28;20198;-59
2021/06/19 05:46:33;;;;;;;9.20;8.30;;;23.80;99.90;;;;;;5073765;28;20198;-58
2021/06/19 05:48:59;;;;;;;9.35;8.43;;;23.90;99.90;;;;;;5073799;28;20169;-55
2021/06/19 05:51:24;;;;;;;9.43;8.57;;;24.00;99.90;;;;;;5073676;28;20634;-58
2021/06/19 05:53:50;;;;;;;9.20;8.40;;;24.00;99.90;;;;;;5072412;28;20187;-61
2021/06/19 05:56:16;;;;;;;8.90;8.07;;;23.90;99.90;;;;;;5073822;28;20312;-58
2021/06/19 05:58:42;;;;;;;8.35;7.55;;;24.00;99.90;;;;;;5072796;28;20202;-59
2021/06/19 06:01:08;;;;;;;9.20;8.40;;;24.10;99.90;;;;;;5068173;28;20256;-57
2021/06/19 06:03:33;;;;;;;9.18;8.00;;;24.30;99.90;;;;;;5068915;28;20531;-60
2021/06/19 06:05:59;;;;;;;8.10;7.40;;;24.40;99.90;;;;;;5052307;28;20289;-57
2021/06/19 06:08:24;;;;;;;7.60;6.70;;;24.50;99.90;;;;;;5053336;28;20195;-57
2021/06/19 06:10:50;;;;;;;7.63;7.03;;;24.60;99.90;;;;;;5052435;28;20726;-56
2021/06/19 06:13:15;;;;;;;8.00;7.30;;;24.60;99.90;;;;;;5053093;28;20628;-57
2021/06/19 06:15:41;;;;;;;7.95;7.30;;;24.60;99.90;;;;;;5059747;28;20175;-61
2021/06/19 06:18:06;;;;;;;9.13;7.80;;;24.60;99.90;;;;;;5072070;28;20209;-54
2021/06/19 06:20:32;;;;;;;8.20;7.40;;;24.60;99.90;;;;;;5073977;28;20179;-54
2021/06/19 06:22:58;;;;;;;7.93;7.22;;;24.60;99.90;;;;;;5070669;28;20229;-58
2021/06/19 06:25:23;;;;;;;8.38;7.53;;;24.60;99.90;;;;;;5071912;28;20198;-57
2021/06/19 06:27:49;;;;;;;7.70;6.90;;;24.80;99.90;;;;;;5073031;28;20527;-55
2021/06/19 06:30:15;;;;;;;8.15;7.35;;;24.90;99.90;;;;;;5073443;28;20414;-57
2021/06/19 06:32:40;;;;;;;8.52;7.82;;;25.10;99.90;;;;;;5072296;28;20218;-57
2021/06/19 06:35:09;;;;;;;8.25;7.55;;;25.10;99.90;;;;;;5073575;28;20182;-59
2021/06/19 06:37:35;;;;;;;8.82;8.02;;;25.20;99.90;;;;;;5072765;28;20686;-57
2021/06/19 06:40:01;;;;;;;9.15;8.10;;;25.20;99.90;;;;;;5072360;28;20584;-59
2021/06/19 06:42:27;;;;;;;7.28;6.68;;;25.20;99.90;;;;;;5073211;28;20618;-56
2021/06/19 06:44:52;;;;;;;8.18;7.38;;;25.40;99.90;;;;;;5074730;28;20226;-57
2021/06/19 06:47:18;;;;;;;7.70;6.90;;;25.50;99.90;;;;;;5077456;28;20277;-56
2021/06/19 06:49:43;;;;;;;8.45;7.65;;;25.80;99.90;;;;;;5077178;28;20261;-54
2021/06/19 06:52:09;;;;;;;7.43;6.72;;;26.00;99.90;;;;;;5076053;28;20584;-57
2021/06/19 06:54:38;;;;;;;8.32;7.53;;;26.00;99.90;;;;;;5077508;28;20229;-56
2021/06/19 06:57:09;;;;;;;9.15;8.38;;;26.00;99.90;;;;;;5076876;28;20199;-57
2021/06/19 06:59:36;;;;;;;9.27;8.25;;;26.00;99.90;;;;;;5077162;28;20171;-53
2021/06/19 07:02:03;;;;;;;9.27;8.40;;;26.10;99.90;;;;;;5075612;28;20191;-59
2021/06/19 07:04:28;;;;;;;9.85;8.13;;;26.10;99.90;;;;;;5077002;28;20198;-59
2021/06/19 07:06:54;;;;;;;7.95;7.30;;;26.00;99.90;;;;;;5077388;28;20190;-56
2021/06/19 07:09:19;;;;;;;9.45;8.55;;;26.20;99.90;;;;;;5075648;28;20193;-57
2021/06/19 07:11:45;;;;;;;8.77;7.88;;;26.20;99.90;;;;;;5076326;28;20187;-59
2021/06/19 07:14:10;;;;;;;9.18;8.27;;;26.10;99.90;;;;;;5076319;28;20182;-54
2021/06/19 07:16:36;;;;;;;8.73;7.93;;;26.10;99.90;;;;;;5075657;28;20207;-61
2021/06/19 07:19:01;;;;;;;8.77;7.47;;;26.10;99.90;;;;;;5076058;28;20177;-58
2021/06/19 07:21:29;;;;;;;8.52;7.43;;;26.20;99.90;;;;;;5075924;28;20190;-59
2021/06/19 07:23:55;;;;;;;10.05;8.75;;;26.30;99.90;;;;;;5075276;28;20182;-58
2021/06/19 07:26:21;;;;;;;9.02;8.20;;;26.30;99.90;;;;;;5076160;28;20173;-57
2021/06/19 07:28:46;;;;;;;9.20;8.18;;;26.30;99.90;;;;;;5076268;28;20181;-58
2021/06/19 07:31:12;;;;;;;8.73;7.93;;;26.40;99.90;;;;;;5076443;28;20250;-59
2021/06/19 07:33:38;;;;;;;8.85;7.95;;;26.60;99.90;;;;;;5075082;28;20217;-58
2021/06/19 07:36:04;;;;;;;9.63;8.63;;;26.70;99.90;;;;;;5075928;28;20202;-60
2021/06/19 07:38:30;;;;;;;9.20;8.30;;;26.80;99.90;;;;;;5074999;28;20260;-60
2021/06/19 07:40:56;;;;;;;9.73;7.93;;;26.90;99.90;;;;;;5075566;28;20183;-57
2021/06/19 07:43:26;;;;;;;9.30;8.27;;;26.80;99.90;;;;;;5075863;28;20174;-57
2021/06/19 07:45:52;;;;;;;8.93;8.13;;;26.90;99.90;;;;;;5076073;28;20677;-59
2021/06/19 07:48:18;;;;;;;9.27;8.38;;;27.00;99.90;;;;;;5075747;28;20194;-55
2021/06/19 07:50:44;;;;;;;9.43;8.52;;;27.00;99.90;;;;;;5075685;28;20178;-59
2021/06/19 07:53:10;;;;;;;9.40;8.50;;;26.90;99.90;;;;;;5074537;28;20650;-58
2021/06/19 07:55:35;;;;;;;10.02;8.75;;;26.90;99.90;;;;;;5075142;28;20240;-56
2021/06/19 07:58:01;;;;;;;10.02;8.73;;;27.00;99.90;;;;;;5074669;28;20669;-58
2021/06/19 08:00:29;;;;;;;9.32;8.48;;;27.00;99.90;;;;;;5075207;28;20179;-57
2021/06/19 08:02:55;;;;;;;11.65;8.68;;;27.10;99.90;;;;;;5075693;28;20167;-58
2021/06/19 08:05:20;;;;;;;8.98;8.07;;;27.30;99.90;;;;;;5074888;28;20217;-58
2021/06/19 08:07:46;;;;;;;10.32;9.43;;;27.30;99.90;;;;;;5074669;28;20189;-55
2021/06/19 08:10:11;;;;;;;9.57;8.68;;;27.20;99.90;;;;;;5075688;28;20508;-56
2021/06/19 08:12:38;;;;;;;10.68;8.63;;;27.30;99.90;;;;;;5074486;28;20170;-56
2021/06/19 08:15:05;;;;;;;9.50;8.60;;;27.30;99.90;;;;;;5075288;28;20178;-55
2021/06/19 08:17:30;;;;;;;9.75;8.85;;;27.30;99.90;;;;;;5074932;28;20190;-61
2021/06/19 08:19:56;;;;;;;9.18;8.10;;;27.40;99.90;;;;;;5075075;28;20197;-56
2021/06/19 08:22:21;;;;;;;10.07;9.18;;;27.50;99.90;;;;;;5073788;28;20228;-58
2021/06/19 08:24:47;;;;;;;8.80;8.00;;;27.70;99.90;;;;;;5075118;28;20561;-61
2021/06/19 08:27:13;;;;;;;10.07;9.18;;;27.90;99.90;;;;;;5075089;28;20491;-57
2021/06/19 08:29:39;;;;;;;10.00;9.00;;;28.00;99.90;;;;;;5074240;28;20174;-56
2021/06/19 08:32:08;;;;;;;11.45;9.15;;;28.10;99.90;;;;;;5074401;28;20265;-56
2021/06/19 08:34:34;;;;;;;9.80;8.77;;;28.10;99.90;;;;;;5074005;28;20178;-57
2021/06/19 08:36:59;;;;;;;8.85;8.05;;;28.20;99.90;;;;;;5074670;28;20302;-56
2021/06/19 08:39:25;;;;;;;8.65;7.95;;;28.30;99.90;;;;;;5073672;28;20171;-55
2021/06/19 08:41:55;;;;;;;8.68;7.97;;;28.60;99.90;;;;;;5074668;28;20749;-55
2021/06/19 08:44:25;;;;;;;9.80;8.32;;;28.80;99.90;;;;;;5074682;28;20195;-54
2021/06/19 08:46:52;;;;;;;12.73;9.13;;;28.90;99.90;;;;;;5074547;28;20681;-60
2021/06/19 08:49:19;;;;;;;9.40;8.60;;;28.80;99.90;;;;;;5074514;28;20170;-55
2021/06/19 08:51:45;;;;;;;10.77;9.30;;;28.70;99.90;;;;;;5074257;28;20175;-58
2021/06/19 08:54:12;;;;;;;9.85;8.82;;;28.50;99.90;;;;;;5073478;28;20191;-55
2021/06/19 08:56:40;;;;;;;10.02;8.15;;;28.40;99.90;;;;;;5074402;28;20198;-56
2021/06/19 08:59:05;;;;;;;10.13;9.15;;;28.40;99.90;;;;;;5074278;28;20182;-53
2021/06/19 09:01:31;;;;;;;9.90;9.00;;;28.30;99.90;;;;;;5073218;28;20175;-58
2021/06/19 09:03:56;;;;;;;9.65;8.68;;;28.40;99.90;;;;;;5073774;28;20255;-58
2021/06/19 09:06:27;;;;;;;10.85;9.85;;;28.30;99.90;;;;;;5073242;28;20159;-60
2021/06/19 09:09:10;;;;;;;10.07;9.05;;;28.30;99.90;;;;;;5073470;28;20641;-58
2021/06/19 09:11:35;;;;;;;11.07;10.07;;;28.30;99.90;;;;;;5073479;28;20178;-60
2021/06/19 09:14:07;;;;;;;10.32;9.43;;;28.40;99.90;;;;;;5074700;28;20174;-54
2021/06/19 09:16:34;;;;;;;10.90;9.90;;;28.50;99.90;;;;;;5073527;28;20248;-56
2021/06/19 09:18:59;;;;;;;11.27;10.27;;;28.60;99.90;;;;;;5072644;28;20167;-56
2021/06/19 09:21:33;;;;;;;9.20;8.30;;;28.60;99.90;;;;;;5073804;28;20179;-61
2021/06/19 09:23:59;;;;;;;10.18;9.27;;;28.80;99.90;;;;;;5072903;28;20266;-60
2021/06/19 09:26:34;;;;;;;9.02;8.27;;;29.00;99.90;;;;;;5073758;28;20167;-55
2021/06/19 09:29:15;;;;;;;8.75;7.93;;;29.20;99.90;;;;;;5073939;28;20170;-60
2021/06/19 09:31:40;;;;;;;10.93;9.95;;;29.30;99.90;;;;;;5073120;28;20544;-59
2021/06/19 09:34:08;;;;;;;10.90;10.00;;;29.40;99.90;;;;;;5073246;28;20695;-54
2021/06/19 09:36:38;;;;;;;10.55;9.45;;;29.30;99.90;;;;;;5073481;28;20265;-60
2021/06/19 09:39:05;;;;;;;11.52;10.43;;;29.40;99.90;;;;;;5072553;28;20175;-60
2021/06/19 09:41:42;;;;;;;12.13;10.95;;;29.50;99.90;;;;;;5073760;28;20223;-57
2021/06/19 09:44:09;;;;;;;12.15;11.05;;;29.50;99.90;;;;;;5072640;28;20214;-53
2021/06/19 09:46:35;;;;;;;11.55;10.45;;;29.60;99.90;;;;;;5073818;28;20193;-56
2021/06/19 09:49:12;;;;;;;11.38;10.18;;;29.60;99.90;;;;;;5073756;28;20250;-56
2021/06/19 09:51:49;;;;;;;11.77;10.70;;;29.90;99.90;;;;;;5072616;28;20170;-59
2021/06/19 09:54:14;;;;;;;11.13;10.02;;;30.00;99.90;;;;;;5073640;28;20178;-60
2021/06/19 09:56:44;;;;;;;12.10;10.65;;;30.10;99.90;;;;;;5072601;28;20214;-57
2021/06/19 09:59:19;;;;;;;11.50;10.32;;;30.20;99.90;;;;;;5073508;28;20171;-61
2021/06/19 10:01:44;;;;;;;12.25;10.80;;;30.40;99.90;;;;;;5072450;28;20182;-57
2021/06/19 10:04:15;;;;;;;11.63;10.48;;;30.30;99.90;;;;;;5071598;28;20202;-60
2021/06/19 10:06:41;;;;;;;11.00;8.73;;;30.20;99.90;;;;;;5073798;28;20226;-59
2021/06/19 10:09:06;;;;;;;10.82;9.82;;;30.30;99.90;;;;;;5073298;28;20228;-60
2021/06/19 10:11:32;;;;;;;10.02;8.98;;;30.50;99.90;;;;;;5073099;28;20177;-60
2021/06/19 10:13:59;;;;;;;10.98;9.98;;;30.70;99.90;;;;;;5073347;28;20259;-59
2021/06/19 10:16:27;;;;;;;9.93;8.85;;;30.60;99.90;;;;;;5073392;28;20185;-60
2021/06/19 10:18:53;;;;;;;10.45;9.38;;;30.60;99.90;;;;;;5074166;28;20177;-60
2021/06/19 10:21:20;;;;;;;10.32;9.43;;;30.50;99.90;;;;;;5077470;28;20170;-58
2021/06/19 10:23:46;;;;;;;10.63;9.52;;;30.60;99.90;;;;;;5076119;28;20191;-59
2021/06/19 10:26:13;;;;;;;10.80;8.38;;;30.80;99.90;;;;;;5077222;28;20177;-57
2021/06/19 10:28:50;;;;;;;10.57;8.60;;;31.00;99.90;;;;;;5076127;28;20175;-59
2021/06/19 10:31:18;;;;;;;8.93;8.13;;;31.20;99.90;;;;;;5077098;28;20186;-58
2021/06/19 10:33:44;;;;;;;9.57;8.57;;;31.30;98.80;;;;;;5074939;28;23265;-58
2021/06/19 10:36:11;;;;;;;10.27;7.82;;;31.30;99.60;;;;;;5056792;28;20213;-53
2021/06/19 10:38:54;;;;;;;9.13;8.23;;;31.40;99.90;;;;;;5056772;28;20271;-60
2021/06/19 10:41:22;;;;;;;9.00;8.10;;;31.50;98.80;;;;;;5055797;28;20206;-58
2021/06/19 10:43:50;;;;;;;8.70;7.90;;;31.50;99.40;;;;;;5056758;28;20186;-58
2021/06/19 10:46:35;;;;;;;7.95;7.13;;;31.70;98.60;;;;;;5055843;28;20308;-61
2021/06/19 10:49:21;;;;;;;9.55;8.63;;;31.80;97.90;;;;;;5057176;28;20176;-59
2021/06/19 10:51:47;;;;;;;9.18;7.90;;;31.80;97.10;;;;;;5033759;28;20188;-60
2021/06/19 10:54:23;;;;;;;8.20;7.40;;;31.80;97.50;;;;;;5034775;28;20195;-61
2021/06/19 10:56:57;;;;;;;8.15;7.32;;;31.90;97.30;;;;;;5034673;28;20204;-60
2021/06/19 10:59:25;;;;;;;8.60;6.70;;;31.80;97.90;;;;;;5034647;28;20176;-57
2021/06/19 11:01:53;;;;;;;7.53;6.82;;;31.70;97.30;;;;;;5033594;28;20188;-60
2021/06/19 11:04:39;;;;;;;10.73;7.15;;;31.90;96.70;;;;;;5034200;28;20203;-58
2021/06/19 11:07:08;;;;;;;7.03;6.45;;;31.90;97.90;;;;;;5034305;28;20735;-60
2021/06/19 11:09:43;;;;;;;7.60;6.82;;;32.10;98.50;;;;;;5033503;28;20176;-56
2021/06/19 11:12:25;;;;;;;6.85;6.25;;;32.50;96.80;;;;;;5046361;28;20179;-55
2021/06/19 11:14:52;;;;;;;7.05;6.45;;;32.60;96.50;;;;;;5054375;28;20214;-61
2021/06/19 11:17:20;;;;;;;7.57;6.85;;;32.50;96.10;;;;;;5052909;28;20757;-61
2021/06/19 11:19:49;;;;;;;7.50;6.80;;;32.50;95.80;;;;;;5054404;28;20176;-61
2021/06/19 11:22:28;;;;;;;7.68;7.03;;;32.70;95.10;;;;;;5053794;28;20513;-61
2021/06/19 11:25:13;;;;;;;7.60;6.90;;;32.90;95.90;;;;;;5053532;28;20190;-59
2021/06/19 11:28:08;;;;;;;9.32;7.50;;;32.90;95.40;;;;;;5053926;28;20205;-54
2021/06/19 11:30:34;;;;;;;7.70;6.90;;;32.80;97.00;;;;;;5055419;28;20558;-58
2021/06/19 11:33:24;;;;;;;8.43;7.18;;;32.80;97.90;;;;;;5054755;28;20647;-60
2021/06/19 11:36:15;;;;;;;8.05;7.35;;;32.90;96.20;;;;;;5055988;28;20163;-59
2021/06/19 11:38:51;;;;;;;8.38;6.78;;;33.10;94.50;;;;;;5054745;28;20202;-59
2021/06/19 11:41:25;;;;;;;7.05;6.45;;;33.00;93.60;;;;;;5055761;28;20183;-61
2021/06/19 11:43:51;;;;;;;7.55;6.78;;;33.10;93.80;;;;;;5055021;28;20548;-60
2021/06/19 11:46:19;;;;;;;6.93;6.22;;;33.10;94.10;;;;;;5055357;28;20171;-60
2021/06/19 11:48:56;;;;;;;8.38;5.85;;;33.20;94.10;;;;;;5055720;28;20672;-60
2021/06/19 11:51:26;;;;;;;6.93;6.22;;;33.30;96.30;;;;;;5054611;28;20166;-59
2021/06/19 11:53:53;;;;;;;7.43;6.50;;;33.50;95.20;;;;;;5056141;28;20178;-59
2021/06/19 11:56:26;;;;;;;6.60;6.10;;;33.70;93.80;;;;;;5054840;28;20266;-59
2021/06/19 11:58:55;;;;;;;6.30;5.78;;;33.50;94.30;;;;;;5055586;28;20179;-59
2021/06/19 12:01:29;;;;;;;7.13;6.38;;;33.50;93.80;;;;;;5055111;28;20175;-60
2021/06/19 12:04:03;;;;;;;6.40;5.80;;;33.40;93.40;;;;;;5054879;28;20175;-59
2021/06/19 12:06:31;;;;;;;10.32;6.38;;;33.70;94.70;;;;;;5055510;28;20516;-61
2021/06/19 12:08:57;;;;;;;6.25;5.75;;;33.70;92.50;;;;;;5055374;28;20262;-60
2021/06/19 12:11:30;;;;;;;6.30;5.72;;;33.70;92.10;;;;;;5055632;28;20195;-60
2021/06/19 12:13:57;;;;;;;6.45;5.85;;;33.70;92.80;;;;;;5054660;28;20160;-61
2021/06/19 12:16:30;;;;;;;6.90;5.75;;;33.80;92.30;;;;;;5055571;28;20608;-59
2021/06/19 12:19:00;;;;;;;5.68;5.10;;;33.90;91.60;;;;;;5054283;28;20266;-59
2021/06/19 12:21:37;;;;;;;5.18;4.85;;;33.90;90.00;;;;;;5054987;28;20268;-60
2021/06/19 12:24:18;;;;;;;5.82;5.32;;;33.90;90.60;;;;;;5054903;28;20155;-59
2021/06/19 12:27:03;;;;;;;6.43;5.82;;;33.90;89.20;;;;;;5054084;28;20206;-57
2021/06/19 12:29:53;;;;;;;7.68;5.78;;;34.10;87.60;;;;;;5055104;28;20186;-56
2021/06/19 12:32:20;;;;;;;6.25;5.70;;;34.30;86.90;;;;;;5053803;28;20187;-59
2021/06/19 12:34:47;;;;;;;6.25;5.65;;;34.50;87.30;;;;;;5055228;28;20176;-59
2021/06/19 12:37:13;;;;;;;7.10;5.68;;;34.70;87.30;;;;;;5054663;28;20269;-59
2021/06/19 12:39:39;;;;;;;6.35;5.38;;;35.00;90.40;;;;;;5054623;28;20221;-59
2021/06/19 12:42:06;;;;;;;6.57;5.18;;;35.30;86.80;;;;;;5053601;28;20589;-60
2021/06/19 12:44:31;;;;;;;5.53;5.07;;;35.50;86.90;;;;;;5054386;28;20191;-58
2021/06/19 12:47:17;;;;;;;7.85;5.40;;;35.80;85.50;;;;;;5054579;28;20194;-61
2021/06/19 12:49:57;;;;;;;5.63;5.22;;;35.90;85.10;;;;;;5054031;28;20170;-59